createdAt,value
2019-05-14T00:00:42.101Z,2.50
2019-05-14T00:03:11.594Z,2.43
2019-05-14T00:05:42.452Z,2.60
2019-05-14T00:08:12.057Z,2.43
2019-05-14T00:10:41.557Z,2.60
2019-05-14T00:13:12.055Z,3.20
2019-05-14T00:15:41.666Z,3.10
2019-05-14T00:18:11.779Z,3.10
2019-05-14T00:20:42.043Z,2.50
2019-05-14T00:23:11.919Z,2.70
2019-05-14T00:25:41.983Z,2.90
2019-05-14T00:28:11.872Z,2.90
2019-05-14T00:30:42.227Z,2.93
2019-05-14T00:33:12.006Z,2.90
2019-05-14T00:35:41.519Z,3.03
2019-05-14T00:38:11.901Z,3.10
2019-05-14T00:40:42.089Z,3.00
2019-05-14T00:43:11.608Z,3.20
2019-05-14T00:45:41.810Z,3.40
2019-05-14T00:48:12.897Z,3.77
2019-05-14T00:50:42.553Z,3.20
2019-05-14T00:53:12.065Z,3.30
2019-05-14T00:55:42.073Z,3.40
2019-05-14T00:58:11.783Z,3.30
2019-05-14T01:00:41.927Z,3.63
2019-05-14T01:03:11.601Z,3.83
2019-05-14T01:05:41.448Z,3.93
2019-05-14T01:08:12.046Z,3.77
2019-05-14T01:10:41.947Z,3.70
2019-05-14T01:13:11.487Z,3.67
2019-05-14T01:15:41.477Z,3.77
2019-05-14T01:18:11.509Z,3.80
2019-05-14T01:20:41.300Z,4.20
2019-05-14T01:23:11.539Z,4.13
2019-05-14T01:25:42.211Z,4.47
2019-05-14T01:28:12.029Z,3.77
2019-05-14T01:30:41.490Z,4.27
2019-05-14T01:33:11.808Z,4.10
2019-05-14T01:35:42.127Z,4.83
2019-05-14T01:38:11.870Z,4.57
2019-05-14T01:40:41.981Z,4.20
2019-05-14T01:43:11.737Z,4.30
2019-05-14T01:45:41.704Z,4.10
2019-05-14T01:48:11.798Z,4.67
2019-05-14T01:50:41.532Z,4.27
2019-05-14T01:53:11.651Z,4.30
2019-05-14T01:55:41.579Z,4.67
2019-05-14T01:58:11.614Z,4.40
2019-05-14T02:00:41.737Z,4.57
2019-05-14T02:03:12.112Z,4.00
2019-05-14T02:05:41.860Z,4.07
2019-05-14T02:08:12.159Z,4.40
2019-05-14T02:10:42.047Z,4.17
2019-05-14T02:13:12.298Z,4.63
2019-05-14T02:15:43.024Z,4.37
2019-05-14T02:18:12.070Z,4.07
2019-05-14T02:20:42.108Z,4.17
2019-05-14T02:23:11.979Z,4.00
2019-05-14T02:25:41.795Z,4.33
2019-05-14T02:28:11.654Z,4.80
2019-05-14T02:30:52.457Z,4.63
2019-05-14T02:33:12.550Z,4.63
2019-05-14T02:35:42.033Z,5.00
2019-05-14T02:38:11.503Z,4.50
2019-05-14T02:40:40.970Z,4.87
2019-05-14T02:43:10.481Z,4.50
2019-05-14T02:46:00.645Z,4.93
2019-05-14T02:48:12.378Z,4.97
2019-05-14T02:50:41.896Z,4.73
2019-05-14T02:53:11.386Z,4.63
2019-05-14T02:55:40.875Z,4.97
2019-05-14T02:58:10.502Z,4.87
2019-05-14T03:00:40.717Z,5.40
2019-05-14T03:03:10.538Z,4.47
2019-05-14T03:05:40.368Z,5.03
2019-05-14T03:08:09.883Z,5.37
2019-05-14T03:10:40.218Z,5.33
2019-05-14T03:13:09.961Z,5.10
2019-05-14T03:15:39.450Z,4.97
2019-05-14T03:18:09.356Z,5.17
2019-05-14T03:20:39.389Z,5.47
2019-05-14T03:23:17.524Z,5.30
2019-05-14T03:25:40.225Z,5.30
2019-05-14T03:28:09.711Z,5.27
2019-05-14T03:30:42.345Z,5.10
2019-05-14T03:33:13.516Z,4.67
2019-05-14T03:35:49.638Z,5.43
2019-05-14T03:38:12.780Z,5.07
2019-05-14T03:40:42.212Z,5.57
2019-05-14T03:43:11.749Z,5.40
2019-05-14T03:45:41.234Z,5.33
2019-05-14T03:48:10.842Z,5.47
2019-05-14T03:50:40.363Z,5.57
2019-05-14T03:53:10.262Z,5.70
2019-05-14T03:55:40.540Z,5.27
2019-05-14T03:58:10.294Z,5.10
2019-05-14T04:00:52.700Z,5.43
2019-05-14T04:03:22.388Z,5.50
2019-05-14T04:05:52.678Z,5.47
2019-05-14T04:08:22.964Z,5.37
2019-05-14T04:10:54.966Z,6.00
2019-05-14T04:13:25.133Z,5.33
2019-05-14T04:15:56.202Z,6.40
2019-05-14T04:18:29.058Z,5.43
2019-05-14T04:20:59.600Z,5.77
2019-05-14T04:23:30.393Z,5.60
2019-05-14T04:26:01.347Z,5.03
2019-05-14T04:28:33.886Z,5.50
2019-05-14T04:31:06.025Z,5.10
2019-05-14T04:33:39.222Z,5.40
2019-05-14T04:36:10.117Z,5.30
2019-05-14T04:38:41.093Z,5.27
2019-05-14T04:41:10.827Z,4.87
2019-05-14T04:43:40.559Z,5.07
2019-05-14T04:46:10.881Z,5.30
2019-05-14T04:48:43.687Z,5.43
2019-05-14T04:51:11.012Z,5.47
2019-05-14T04:53:39.868Z,5.10
2019-05-14T04:56:09.985Z,5.13
2019-05-14T04:58:41.206Z,4.97
2019-05-14T05:01:11.051Z,5.30
2019-05-14T05:03:40.538Z,5.10
2019-05-14T05:06:10.291Z,4.83
2019-05-14T05:08:40.067Z,4.63
2019-05-14T05:11:09.801Z,4.97
2019-05-14T05:13:39.938Z,4.40
2019-05-14T05:16:10.104Z,5.10
2019-05-14T05:18:40.289Z,5.13
2019-05-14T05:21:10.047Z,4.57
2019-05-14T05:23:39.537Z,5.00
2019-05-14T05:26:09.215Z,5.37
2019-05-14T05:28:39.104Z,4.90
2019-05-14T05:31:09.481Z,4.90
2019-05-14T05:33:38.674Z,4.93
2019-05-14T05:36:09.495Z,5.20
2019-05-14T05:38:39.771Z,4.90
2019-05-14T05:41:09.416Z,5.13
2019-05-14T05:43:39.493Z,5.47
2019-05-14T05:46:09.328Z,5.40
2019-05-14T05:48:39.147Z,4.80
2019-05-14T05:51:09.252Z,5.40
2019-05-14T05:53:39.656Z,5.00
2019-05-14T05:56:09.249Z,5.30
2019-05-14T05:58:39.829Z,5.13
2019-05-14T06:01:09.799Z,4.83
2019-05-14T06:03:39.996Z,5.23
2019-05-14T06:06:13.488Z,5.63
2019-05-14T06:08:40.715Z,5.47
2019-05-14T06:11:10.184Z,6.17
2019-05-14T06:13:39.699Z,6.20
2019-05-14T06:16:09.699Z,6.10
2019-05-14T06:18:39.674Z,5.80
2019-05-14T06:21:09.375Z,6.37
2019-05-14T06:23:38.946Z,5.77
2019-05-14T06:26:11.617Z,6.97
2019-05-14T06:28:40.897Z,5.63
2019-05-14T06:31:10.785Z,6.20
2019-05-14T06:33:40.278Z,5.90
2019-05-14T06:36:09.789Z,6.50
2019-05-14T06:38:39.268Z,6.30
2019-05-14T06:41:08.754Z,6.47
2019-05-14T06:43:39.219Z,5.90
2019-05-14T06:46:09.277Z,6.10
2019-05-14T06:48:39.664Z,6.33
2019-05-14T06:51:09.539Z,6.27
2019-05-14T06:53:39.350Z,5.30
2019-05-14T06:56:09.089Z,6.13
2019-05-14T06:58:39.072Z,5.90
2019-05-14T07:01:09.643Z,5.23
2019-05-14T07:03:39.345Z,5.13
2019-05-14T07:06:09.214Z,5.20
2019-05-14T07:08:39.442Z,4.80
2019-05-14T07:11:11.233Z,5.30
2019-05-14T07:13:45.937Z,5.60
2019-05-14T07:16:19.718Z,5.57
2019-05-14T07:18:53.973Z,4.87
2019-05-14T07:21:22.936Z,5.23
2019-05-14T07:23:52.377Z,5.10
2019-05-14T07:26:21.838Z,5.50
2019-05-14T07:28:51.312Z,5.07
2019-05-14T07:31:20.176Z,4.67
2019-05-14T07:33:49.685Z,5.47
2019-05-14T07:36:19.288Z,4.77
2019-05-14T07:38:49.323Z,4.47
2019-05-14T07:41:19.639Z,5.00
2019-05-14T07:43:49.491Z,4.47
2019-05-14T07:46:19.369Z,4.40
2019-05-14T07:49:03.516Z,4.57
2019-05-14T07:51:20.150Z,4.37
2019-05-14T07:53:49.664Z,4.67
2019-05-14T07:56:19.154Z,4.27
2019-05-14T07:58:49.302Z,4.63
2019-05-14T08:01:19.135Z,4.50
2019-05-14T08:03:49.098Z,4.57
2019-05-14T08:06:19.243Z,4.77
2019-05-14T08:08:49.475Z,4.23
2019-05-14T08:11:19.354Z,4.27
2019-05-14T08:13:49.538Z,4.00
2019-05-14T08:16:19.478Z,4.00
2019-05-14T08:18:49.337Z,3.83
2019-05-14T08:21:19.597Z,3.97
2019-05-14T08:23:49.324Z,4.00
2019-05-14T08:26:19.378Z,3.53
2019-05-14T08:28:49.219Z,3.53
2019-05-14T08:31:18.971Z,3.63
2019-05-14T08:33:49.174Z,3.50
2019-05-14T08:36:18.953Z,3.50
2019-05-14T08:38:50.021Z,3.30
2019-05-14T08:41:20.029Z,3.40
2019-05-14T08:43:49.805Z,2.93
2019-05-14T08:46:19.516Z,2.70
2019-05-14T08:48:49.915Z,3.00
2019-05-14T08:51:19.632Z,3.00
2019-05-14T08:53:50.597Z,3.00
2019-05-14T08:56:20.140Z,3.30
2019-05-14T08:58:49.726Z,3.00
2019-05-14T09:01:19.894Z,3.10
2019-05-14T09:03:49.722Z,2.70
2019-05-14T09:06:19.749Z,2.60
2019-05-14T09:08:49.820Z,2.50
2019-05-14T09:11:24.446Z,2.20
2019-05-14T09:13:50.996Z,2.57
2019-05-14T09:16:38.076Z,2.97
2019-05-14T09:18:51.612Z,2.97
2019-05-14T09:21:21.114Z,2.87
2019-05-14T09:23:50.624Z,2.77
2019-05-14T09:26:20.280Z,2.80
2019-05-14T09:28:49.762Z,2.63
2019-05-14T09:31:20.038Z,2.97
2019-05-14T09:33:49.808Z,2.60
2019-05-14T09:36:24.545Z,2.40
2019-05-14T09:38:50.573Z,2.60
2019-05-14T09:41:20.149Z,2.30
2019-05-14T09:43:49.655Z,2.50
2019-05-14T09:46:19.185Z,2.77
2019-05-14T09:48:48.917Z,2.30
2019-05-14T09:51:18.653Z,2.70
2019-05-14T09:53:48.877Z,2.53
2019-05-14T09:56:19.099Z,2.10
2019-05-14T09:58:49.628Z,2.60
2019-05-14T10:01:19.702Z,2.70
2019-05-14T10:03:49.762Z,2.20
2019-05-14T10:06:20.721Z,2.17
2019-05-14T10:08:50.502Z,2.40
2019-05-14T10:11:19.985Z,2.20
2019-05-14T10:13:49.480Z,2.10
2019-05-14T10:16:19.238Z,2.20
2019-05-14T10:18:52.358Z,2.47
2019-05-14T10:21:20.025Z,2.03
2019-05-14T10:23:49.502Z,2.17
2019-05-14T10:26:18.993Z,2.23
2019-05-14T10:28:48.714Z,1.90
2019-05-14T10:31:18.593Z,2.13
2019-05-14T10:33:48.705Z,2.33
2019-05-14T10:36:19.349Z,1.60
2019-05-14T10:38:49.138Z,2.52
2019-05-14T10:41:18.733Z,1.90
2019-05-14T10:43:49.660Z,1.90
2019-05-14T10:46:19.583Z,2.02
2019-05-14T10:48:49.153Z,1.87
2019-05-14T10:51:18.675Z,1.82
2019-05-14T10:53:48.793Z,1.65
2019-05-14T10:56:19.580Z,1.47
2019-05-14T10:58:49.382Z,1.75
2019-05-14T11:01:21.888Z,2.00
2019-05-14T11:03:49.393Z,1.80
2019-05-14T11:06:19.008Z,1.45
2019-05-14T11:08:49.185Z,1.77
2019-05-14T11:11:19.177Z,1.60
2019-05-14T11:13:48.696Z,1.50
2019-05-14T11:16:19.081Z,1.70
2019-05-14T11:18:49.819Z,1.83
2019-05-14T11:21:26.417Z,1.82
2019-05-14T11:23:50.967Z,1.70
2019-05-14T11:26:20.463Z,1.30
2019-05-14T11:28:49.934Z,1.32
2019-05-14T11:31:19.551Z,1.52
2019-05-14T11:33:49.915Z,1.70
2019-05-14T11:36:19.538Z,1.60
2019-05-14T11:38:50.656Z,2.07
2019-05-14T11:41:20.845Z,1.52
2019-05-14T11:43:50.404Z,1.67
2019-05-14T11:46:33.351Z,1.45
2019-05-14T11:48:51.771Z,1.65
2019-05-14T11:51:58.856Z,1.47
2019-05-14T11:54:03.896Z,1.30
2019-05-14T11:56:33.386Z,1.45
2019-05-14T11:59:02.887Z,1.72
2019-05-14T12:01:32.387Z,1.92
2019-05-14T12:04:02.036Z,1.32
2019-05-14T12:06:31.512Z,1.25
2019-05-14T12:09:01.313Z,1.27
2019-05-14T12:11:30.945Z,1.42
2019-05-14T12:14:01.653Z,1.20
2019-05-14T12:16:31.125Z,1.10
2019-05-14T12:19:00.590Z,1.40
2019-05-14T12:21:30.079Z,1.60
2019-05-14T12:24:04.041Z,1.57
2019-05-14T12:26:30.761Z,1.10
2019-05-14T12:29:00.217Z,1.70
2019-05-14T12:31:29.714Z,1.75
2019-05-14T12:33:59.220Z,1.42
2019-05-14T12:36:29.393Z,3.00
2019-05-14T12:38:59.279Z,1.62
2019-05-14T12:41:29.356Z,1.30
2019-05-14T12:43:59.291Z,1.30
2019-05-14T12:46:29.452Z,1.40
2019-05-14T12:48:59.793Z,1.12
2019-05-14T12:51:29.652Z,1.27
2019-05-14T12:53:59.143Z,1.47
2019-05-14T12:56:29.397Z,1.65
2019-05-14T12:58:59.209Z,1.42
2019-05-14T13:01:28.715Z,2.33
2019-05-14T13:03:59.258Z,1.80
2019-05-14T13:06:29.446Z,1.40
2019-05-14T13:08:59.396Z,1.57
2019-05-14T13:11:28.897Z,1.50
2019-05-14T13:13:58.642Z,1.43
2019-05-14T13:16:28.680Z,1.80
2019-05-14T13:18:59.799Z,1.63
2019-05-14T13:21:29.780Z,1.20
2019-05-14T13:23:59.327Z,1.70
2019-05-14T13:26:29.895Z,1.80
2019-05-14T13:28:59.622Z,1.75
2019-05-14T13:31:29.476Z,1.60
2019-05-14T13:33:59.602Z,1.67
2019-05-14T13:36:30.069Z,1.37
2019-05-14T13:39:00.336Z,1.50
2019-05-14T13:41:29.851Z,1.60
2019-05-14T13:44:15.914Z,1.20
2019-05-14T13:46:30.889Z,1.60
2019-05-14T13:49:00.382Z,1.52
2019-05-14T13:51:33.407Z,1.50
2019-05-14T13:54:01.116Z,1.30
2019-05-14T13:56:29.946Z,1.20
2019-05-14T13:58:59.416Z,1.30
2019-05-14T14:01:29.774Z,1.20
2019-05-14T14:04:10.250Z,1.17
2019-05-14T14:06:30.896Z,1.22
2019-05-14T14:09:00.383Z,1.70
2019-05-14T14:11:31.450Z,1.62
2019-05-14T14:14:01.177Z,2.02
2019-05-14T14:16:30.713Z,4.83
2019-05-14T14:19:03.603Z,1.40
2019-05-14T14:21:31.358Z,1.60
2019-05-14T14:24:00.837Z,1.57
2019-05-14T14:26:30.304Z,1.30
2019-05-14T14:29:00.109Z,1.57
2019-05-14T14:31:30.100Z,1.40
2019-05-14T14:33:59.733Z,1.25
2019-05-14T14:36:30.089Z,1.27
2019-05-14T14:39:00.041Z,2.22
2019-05-14T14:41:29.575Z,2.70
2019-05-14T14:43:59.087Z,1.70
2019-05-14T14:46:28.800Z,1.27
2019-05-14T14:49:02.342Z,1.42
2019-05-14T14:51:29.670Z,1.35
2019-05-14T14:54:07.435Z,0.98
2019-05-14T14:56:30.351Z,1.15
2019-05-14T14:58:59.855Z,1.17
2019-05-14T15:01:30.237Z,1.00
2019-05-14T15:04:00.188Z,1.22
2019-05-14T15:06:30.814Z,1.30
2019-05-14T15:09:00.517Z,2.08
2019-05-14T15:11:30.052Z,1.87
2019-05-14T15:13:59.566Z,1.30
2019-05-14T15:16:29.306Z,2.10
2019-05-14T15:18:58.961Z,4.47
2019-05-14T15:21:29.924Z,2.15
2019-05-14T15:24:10.034Z,1.27
2019-05-14T15:26:31.233Z,1.47
2019-05-14T15:29:00.681Z,1.27
2019-05-14T15:31:30.152Z,1.32
2019-05-14T15:33:59.646Z,1.35
2019-05-14T15:36:29.124Z,1.25
2019-05-14T15:38:59.119Z,1.10
2019-05-14T15:41:29.800Z,1.27
2019-05-14T15:43:59.402Z,1.40
2019-05-14T15:46:28.910Z,1.30
2019-05-14T15:48:59.509Z,1.32
2019-05-14T15:51:29.190Z,1.50
2019-05-14T15:54:16.031Z,1.52
2019-05-14T15:56:29.994Z,1.40
2019-05-14T15:59:01.466Z,1.85
2019-05-14T16:01:30.656Z,1.50
2019-05-14T16:04:00.140Z,1.72
2019-05-14T16:06:29.669Z,1.35
2019-05-14T16:08:59.153Z,1.35
2019-05-14T16:11:29.224Z,1.10
2019-05-14T16:13:58.958Z,1.30
2019-05-14T16:16:28.944Z,1.50
2019-05-14T16:18:58.833Z,1.70
2019-05-14T16:21:28.895Z,1.30
2019-05-14T16:23:58.904Z,1.02
2019-05-14T16:26:29.257Z,1.02
2019-05-14T16:28:59.432Z,1.20
2019-05-14T16:31:31.634Z,1.17
2019-05-14T16:34:00.491Z,1.15
2019-05-14T16:36:29.962Z,1.00
2019-05-14T16:38:59.459Z,1.30
2019-05-14T16:41:29.147Z,1.07
2019-05-14T16:43:58.868Z,1.00
2019-05-14T16:46:28.880Z,1.53
2019-05-14T16:48:58.703Z,1.23
2019-05-14T16:51:28.268Z,1.00
2019-05-14T16:53:58.997Z,1.10
2019-05-14T16:56:28.576Z,1.32
2019-05-14T16:58:58.432Z,1.00
2019-05-14T17:01:30.799Z,0.85
2019-05-14T17:03:59.539Z,1.10
2019-05-14T17:06:29.506Z,1.35
2019-05-14T17:08:59.476Z,1.52
2019-05-14T17:11:28.985Z,1.30
2019-05-14T17:13:58.512Z,1.10
2019-05-14T17:16:28.885Z,1.12
2019-05-14T17:18:59.152Z,1.20
2019-05-14T17:21:28.919Z,1.27
2019-05-14T17:23:58.402Z,1.10
2019-05-14T17:26:28.759Z,1.30
2019-05-14T17:28:59.704Z,1.10
2019-05-14T17:31:31.163Z,1.32
2019-05-14T17:34:00.555Z,1.15
2019-05-14T17:36:30.029Z,1.17
2019-05-14T17:38:59.518Z,0.93
2019-05-14T17:41:29.101Z,1.50
2019-05-14T17:43:58.685Z,1.42
2019-05-14T17:46:29.012Z,2.10
2019-05-14T17:48:59.232Z,2.90
2019-05-14T17:51:28.793Z,1.60
2019-05-14T17:53:58.720Z,1.22
2019-05-14T17:56:28.484Z,1.25
2019-05-14T17:58:58.326Z,1.37
2019-05-14T18:01:29.033Z,1.32
2019-05-14T18:03:58.584Z,1.00
2019-05-14T18:06:28.688Z,1.20
2019-05-14T18:08:58.595Z,1.10
2019-05-14T18:11:28.506Z,1.50
2019-05-14T18:13:59.016Z,1.47
2019-05-14T18:16:29.002Z,1.47
2019-05-14T18:18:58.325Z,1.40
2019-05-14T18:21:28.596Z,1.10
2019-05-14T18:23:58.643Z,1.30
2019-05-14T18:26:29.023Z,1.30
2019-05-14T18:28:58.736Z,1.22
2019-05-14T18:31:28.288Z,3.72
2019-05-14T18:33:58.779Z,3.10
2019-05-14T18:36:28.688Z,2.42
2019-05-14T18:38:58.682Z,1.70
2019-05-14T18:41:29.324Z,1.47
2019-05-14T18:43:59.135Z,1.87
2019-05-14T18:46:28.827Z,1.80
2019-05-14T18:48:59.167Z,1.40
2019-05-14T18:51:29.201Z,1.60
2019-05-14T18:53:58.722Z,1.30
2019-05-14T18:56:29.225Z,1.10
2019-05-14T18:58:58.965Z,1.10
2019-05-14T19:01:29.135Z,1.50
2019-05-14T19:03:59.097Z,1.40
2019-05-14T19:06:28.622Z,1.10
2019-05-14T19:08:58.131Z,1.83
2019-05-14T19:11:28.099Z,1.70
2019-05-14T19:13:57.858Z,1.70
2019-05-14T19:16:28.851Z,1.80
2019-05-14T19:18:58.683Z,0.90
2019-05-14T19:21:28.624Z,1.20
2019-05-14T19:23:58.492Z,1.37
2019-05-14T19:26:34.348Z,1.30
2019-05-14T19:28:59.154Z,1.20
2019-05-14T19:31:28.657Z,1.30
2019-05-14T19:33:58.131Z,1.77
2019-05-14T19:36:28.091Z,1.53
2019-05-14T19:38:58.478Z,1.40
2019-05-14T19:41:28.259Z,3.30
2019-05-14T19:43:59.463Z,44.83
2019-05-14T19:46:29.200Z,30.27
2019-05-14T19:48:59.170Z,9.33
2019-05-14T19:51:28.812Z,4.47
2019-05-14T19:53:58.574Z,2.10
2019-05-14T19:56:29.352Z,1.90
2019-05-14T19:58:59.066Z,1.80
2019-05-14T20:01:28.841Z,1.97
2019-05-14T20:03:59.065Z,1.60
2019-05-14T20:06:29.617Z,1.33
2019-05-14T20:08:59.375Z,1.40
2019-05-14T20:11:29.102Z,1.33
2019-05-14T20:13:59.808Z,1.33
2019-05-14T20:16:29.376Z,1.30
2019-05-14T20:18:58.876Z,1.13
2019-05-14T20:21:28.392Z,1.10
2019-05-14T20:23:59.072Z,1.13
2019-05-14T20:26:28.645Z,0.90
2019-05-14T20:28:59.019Z,1.00
2019-05-14T20:31:29.725Z,1.27
2019-05-14T20:33:59.485Z,1.07
2019-05-14T20:36:29.001Z,0.93
2019-05-14T20:38:58.977Z,0.97
2019-05-14T20:41:28.832Z,1.23
2019-05-14T20:43:58.680Z,1.20
2019-05-14T20:46:28.694Z,1.40
2019-05-14T20:48:59.145Z,1.10
2019-05-14T20:51:30.338Z,0.90
2019-05-14T20:53:59.348Z,1.03
2019-05-14T20:56:28.860Z,1.00
2019-05-14T20:58:58.975Z,1.07
2019-05-14T21:01:29.256Z,1.07
2019-05-14T21:03:59.406Z,1.00
2019-05-14T21:06:29.021Z,1.10
2019-05-14T21:08:58.616Z,1.00
2019-05-14T21:11:28.721Z,0.90
2019-05-14T21:13:58.360Z,1.20
2019-05-14T21:16:28.419Z,0.97
2019-05-14T21:18:59.205Z,1.03
2019-05-14T21:21:29.108Z,1.40
2019-05-14T21:23:58.784Z,1.10
2019-05-14T21:26:29.254Z,1.00
2019-05-14T21:28:59.139Z,1.00
2019-05-14T21:31:28.609Z,1.23
2019-05-14T21:33:58.618Z,1.20
2019-05-14T21:36:28.572Z,1.10
2019-05-14T21:38:58.613Z,0.97
2019-05-14T21:41:28.950Z,1.07
2019-05-14T21:44:01.339Z,1.20
2019-05-14T21:46:31.718Z,1.03
2019-05-14T21:49:01.392Z,1.50
2019-05-14T21:51:30.855Z,1.10
2019-05-14T21:54:00.334Z,1.50
2019-05-14T21:56:29.812Z,1.20
2019-05-14T21:59:01.388Z,1.20
2019-05-14T22:01:31.005Z,1.23
2019-05-14T22:04:00.712Z,1.37
2019-05-14T22:06:30.169Z,0.97
2019-05-14T22:08:59.633Z,1.07
2019-05-14T22:11:29.132Z,1.30
2019-05-14T22:13:58.605Z,1.30
2019-05-14T22:16:28.263Z,1.10
2019-05-14T22:18:59.304Z,1.17
2019-05-14T22:21:29.026Z,1.23
2019-05-14T22:23:58.960Z,1.10
2019-05-14T22:26:28.707Z,1.10
2019-05-14T22:28:58.616Z,1.10
2019-05-14T22:31:28.969Z,1.10
2019-05-14T22:33:58.746Z,1.23
2019-05-14T22:36:29.364Z,1.33
2019-05-14T22:38:59.019Z,1.30
2019-05-14T22:41:29.073Z,1.17
2019-05-14T22:43:59.916Z,1.07
2019-05-14T22:46:29.549Z,1.50
2019-05-14T22:48:59.008Z,1.07
2019-05-14T22:51:28.462Z,1.10
2019-05-14T22:53:58.956Z,1.10
2019-05-14T22:56:28.637Z,1.10
2019-05-14T22:58:58.348Z,1.30
2019-05-14T23:01:28.858Z,1.00
2019-05-14T23:03:59.624Z,1.20
2019-05-14T23:06:29.555Z,1.30
2019-05-14T23:08:59.021Z,1.30
2019-05-14T23:11:28.974Z,1.17
2019-05-14T23:13:58.682Z,1.10
2019-05-14T23:16:34.216Z,1.50
2019-05-14T23:18:59.270Z,1.37
2019-05-14T23:21:28.767Z,1.27
2019-05-14T23:23:58.394Z,1.20
2019-05-14T23:26:28.595Z,1.20
2019-05-14T23:28:58.730Z,0.93
2019-05-14T23:31:28.843Z,1.40
2019-05-14T23:33:58.672Z,1.37
2019-05-14T23:36:29.205Z,1.70
2019-05-14T23:38:59.598Z,1.40
2019-05-14T23:41:29.086Z,1.23
2019-05-14T23:43:58.642Z,1.30
2019-05-14T23:46:29.161Z,1.20
2019-05-14T23:48:59.298Z,1.53
2019-05-14T23:51:29.109Z,1.20
2019-05-14T23:53:58.870Z,1.20
2019-05-14T23:56:28.820Z,1.10
2019-05-14T23:59:01.968Z,1.10
